Terminal Aerodrome Forecast
Issued by NWS Wichita, KS

Home | Current Version | Previous Version | Text Only | Print | Product List | Glossary Off
Versions: 1 2 3 4 5 6 7 8 9 10 11 12 13

600
FTUS43 KICT 030518 AAB
TAFICT
TAF AMD
KICT 030518Z 0305/0324 31017G28KT P6SM OVC025
     FM031100 32016G24KT P6SM OVC050
     FM031400 33015G23KT P6SM SCT035 BKN100
     FM032300 33010KT P6SM SCT250=

USA.gov is the U.S. government's official web portal to all federal, state and local government web resources and services.